Time;durP1;ratioP1;P1;durP2;ratioP2;P2;SDS_P1;SDS_P2;PMS_P1;PMS_P2;Temp;Humidity;BMP_temperature;BMP_pressure;BME280_temperature;BME280_humidity;BME280_pressure;Samples;Min_cycle;Max_cycle;Signal;HPM_P1;HPM_P2
2023/08/25 00:01:35;;;;;;;;;13.50;9.50;;;;;24.50;71.78;100529.88;5056376;28;45518;-50
2023/08/25 00:04:00;;;;;;;;;9.50;9.50;;;;;24.49;71.50;100534.47;5056052;28;47086;-48
2023/08/25 00:06:26;;;;;;;;;10.25;10.00;;;;;24.44;71.30;100523.50;5056524;28;45430;-53
2023/08/25 00:08:51;;;;;;;;;7.75;7.75;;;;;24.46;71.77;100532.22;5056430;28;45340;-49
2023/08/25 00:11:17;;;;;;;;;12.00;10.75;;;;;24.45;71.67;100537.94;5056611;28;45350;-46
2023/08/25 00:13:42;;;;;;;;;7.75;7.75;;;;;24.44;72.35;100530.81;5055991;28;46092;-51
2023/08/25 00:16:09;;;;;;;;;11.25;10.50;;;;;24.43;72.20;100532.72;5056298;28;45200;-48
2023/08/25 00:18:34;;;;;;;;;10.00;9.40;;;;;24.41;71.97;100525.88;5056260;28;45444;-50
2023/08/25 00:21:00;;;;;;;;;9.75;8.75;;;;;24.35;72.71;100517.59;5056222;28;45670;-50
2023/08/25 00:23:25;;;;;;;;;10.75;10.75;;;;;24.36;72.68;100523.88;5055880;28;47119;-47
2023/08/25 00:25:50;;;;;;;;;12.75;10.25;;;;;24.35;73.24;100527.63;5055958;28;45422;-48
2023/08/25 00:28:16;;;;;;;;;12.75;11.50;;;;;24.34;72.69;100515.13;5056070;28;45402;-50
2023/08/25 00:30:41;;;;;;;;;13.25;8.50;;;;;24.31;72.41;100508.28;5056135;28;45415;-47
2023/08/25 00:33:07;;;;;;;;;14.80;12.00;;;;;24.30;73.07;100503.06;5055794;28;45744;-51
2023/08/25 00:35:33;;;;;;;;;11.75;11.75;;;;;24.27;73.15;100504.41;5054389;28;45355;-49
2023/08/25 00:37:58;;;;;;;;;12.25;10.00;;;;;24.23;72.79;100499.66;5056149;28;45350;-51
2023/08/25 00:40:23;;;;;;;;;13.50;12.25;;;;;24.23;73.45;100502.38;5056314;28;45519;-51
2023/08/25 00:42:49;;;;;;;;;11.00;11.00;;;;;24.25;72.88;100508.44;5055605;28;46426;-48
2023/08/25 00:45:14;;;;;;;;;10.00;8.75;;;;;24.15;74.04;100492.75;5055653;28;45194;-52
2023/08/25 00:47:40;;;;;;;;;12.00;12.00;;;;;24.13;73.84;100487.53;5055990;28;45639;-50
2023/08/25 00:50:08;;;;;;;;;10.20;9.40;;;;;24.12;74.42;100485.91;5056038;28;45434;-48
2023/08/25 00:52:34;;;;;;;;;12.00;9.00;;;;;24.07;74.31;100485.81;5055602;28;45473;-52
2023/08/25 00:55:00;;;;;;;;;12.80;10.20;;;;;24.04;74.76;100480.84;5055645;28;45373;-50
2023/08/25 00:57:25;;;;;;;;;11.50;11.50;;;;;24.05;74.07;100487.09;5055857;28;45496;-47
2023/08/25 00:59:51;;;;;;;;;12.00;10.00;;;;;24.07;74.57;100493.97;5055735;28;45409;-46
2023/08/25 01:02:16;;;;;;;;;13.00;10.75;;;;;24.07;74.46;100493.13;5055658;28;45330;-48
2023/08/25 01:04:42;;;;;;;;;10.75;10.75;;;;;24.04;75.03;100489.00;5055235;28;45531;-51
2023/08/25 01:07:07;;;;;;;;;9.75;9.00;;;;;24.00;74.90;100478.84;5055559;28;45315;-50
2023/08/25 01:09:33;;;;;;;;;11.00;11.00;;;;;24.01;74.69;100489.47;5055491;28;45691;-47
2023/08/25 01:12:04;;;;;;;;;11.80;11.40;;;;;24.01;75.48;100491.38;5055463;28;46285;-46
2023/08/25 01:14:40;;;;;;;;;11.40;10.80;;;;;24.04;74.97;100501.75;5054198;28;45531;-51
2023/08/25 01:17:26;;;;;;;;;12.40;10.80;;;;;24.03;74.62;100495.50;5055436;28;45448;-52
2023/08/25 01:20:00;;;;;;;;;12.00;11.60;;;;;24.01;75.37;100499.53;5055597;28;45462;-52
2023/08/25 01:22:34;;;;;;;;;12.20;10.80;;;;;24.02;75.29;100503.88;5055256;28;46589;-49
2023/08/25 01:25:15;;;;;;;;;13.80;9.60;;;;;24.01;75.11;100500.34;5055445;28;45425;-49
2023/08/25 01:27:41;;;;;;;;;14.00;11.00;;;;;23.80;75.84;100465.69;5055516;28;45359;-49
2023/08/25 01:30:06;;;;;;;;;14.00;13.00;;;;;23.99;75.98;100499.78;5055428;28;45604;-49
2023/08/25 01:32:32;;;;;;;;;9.00;9.00;;;;;23.98;74.91;100492.69;5054774;28;46189;-52
2023/08/25 01:34:57;;;;;;;;;12.75;10.75;;;;;23.94;75.80;100486.09;5056316;28;45505;-48
2023/08/25 01:37:32;;;;;;;;;12.75;9.25;;;;;23.87;76.22;100474.53;5057503;28;45252;-50
2023/08/25 01:40:05;;;;;;;;;11.40;10.80;;;;;23.93;75.75;100484.41;5058560;28;45232;-50
2023/08/25 01:42:33;;;;;;;;;13.20;11.40;;;;;23.92;75.77;100485.50;5058341;28;47011;-49
2023/08/25 01:45:00;;;;;;;;;11.80;10.00;;;;;23.88;76.08;100495.19;5058807;28;45647;-49
2023/08/25 01:47:28;;;;;;;;;12.00;12.00;;;;;23.87;76.28;100490.84;5058846;28;45449;-48
2023/08/25 01:49:56;;;;;;;;;16.40;12.60;;;;;23.88;76.40;100487.03;5058476;28;45248;-46
2023/08/25 01:52:21;;;;;;;;;11.40;11.40;;;;;23.86;75.87;100478.31;5058462;28;46535;-49
2023/08/25 01:54:49;;;;;;;;;13.75;12.25;;;;;23.85;76.48;100479.38;5058482;28;45354;-48
2023/08/25 01:57:15;;;;;;;;;14.20;12.60;;;;;23.82;76.94;100477.97;5058542;28;45356;-50
2023/08/25 01:59:40;;;;;;;;;11.00;10.00;;;;;23.82;76.65;100477.16;5058367;28;45303;-47
2023/08/25 02:02:06;;;;;;;;;11.50;11.00;;;;;23.80;77.21;100473.84;5058198;28;45421;-48
2023/08/25 02:04:31;;;;;;;;;12.75;12.25;;;;;23.78;76.91;100474.09;5058018;28;45400;-45
2023/08/25 02:06:56;;;;;;;;;11.50;11.50;;;;;23.80;77.02;100463.78;5058377;28;45354;-47
2023/08/25 02:09:22;;;;;;;;;13.50;13.00;;;;;23.81;76.81;100465.47;5058494;28;45363;-51
2023/08/25 02:11:47;;;;;;;;;12.50;11.00;;;;;23.80;76.85;100446.66;5058306;28;45455;-48
2023/08/25 02:14:12;;;;;;;;;15.00;13.25;;;;;23.83;76.81;100454.34;5058058;28;45502;-46
2023/08/25 02:16:38;;;;;;;;;15.50;12.50;;;;;23.84;76.74;100456.00;5058025;28;45373;-47
2023/08/25 02:19:03;;;;;;;;;13.50;10.75;;;;;23.86;76.88;100451.16;5058313;28;45432;-48
2023/08/25 02:21:28;;;;;;;;;18.50;14.00;;;;;23.94;76.67;100458.94;5056749;28;46015;-47
2023/08/25 02:23:55;;;;;;;;;16.00;13.25;;;;;23.97;76.49;100449.44;5058155;28;45449;-45
2023/08/25 02:26:20;;;;;;;;;17.00;15.40;;;;;23.98;76.18;100449.22;5058028;28;45246;-48
2023/08/25 02:28:45;;;;;;;;;16.25;10.75;;;;;23.93;76.38;100426.53;5058077;28;45474;-46
2023/08/25 02:31:11;;;;;;;;;14.50;13.75;;;;;23.92;76.43;100406.72;5057683;28;47153;-45
2023/08/25 02:33:36;;;;;;;;;11.25;9.75;;;;;23.99;76.16;100406.56;5057617;28;45327;-47
2023/08/25 02:36:02;;;;;;;;;10.50;8.75;;;;;23.94;76.08;100399.16;5057845;28;45311;-46
2023/08/25 02:38:27;;;;;;;;;13.00;10.25;;;;;23.98;76.22;100394.06;5058025;28;45202;-52
2023/08/25 02:40:52;;;;;;;;;11.75;11.00;;;;;23.92;75.80;100381.44;5057446;28;46300;-48
2023/08/25 02:43:18;;;;;;;;;13.25;12.00;;;;;23.97;76.64;100381.53;5057561;28;45399;-49
2023/08/25 02:45:43;;;;;;;;;14.00;12.00;;;;;23.96;76.49;100388.84;5056979;28;45395;-52
2023/08/25 02:48:08;;;;;;;;;14.00;11.75;;;;;23.92;76.11;100373.28;5057446;28;45324;-51
2023/08/25 02:50:34;;;;;;;;;11.25;11.25;;;;;23.95;76.20;100379.06;5055904;28;47322;-50
2023/08/25 02:52:59;;;;;;;;;15.50;12.75;;;;;23.96;76.44;100383.41;5057525;28;45423;-47
2023/08/25 02:55:25;;;;;;;;;11.00;10.00;;;;;23.95;76.32;100376.34;5057683;28;45669;-46
2023/08/25 02:57:51;;;;;;;;;11.50;11.50;;;;;23.77;76.14;100362.97;5057626;28;45567;-47
2023/08/25 03:00:23;;;;;;;;;14.00;11.20;;;;;23.99;76.27;100401.13;5057054;28;45690;-46
2023/08/25 03:02:49;;;;;;;;;17.20;13.60;;;;;23.99;76.65;100404.69;5057310;28;45387;-46
2023/08/25 03:05:15;;;;;;;;;12.00;10.60;;;;;24.00;76.17;100406.31;5057533;28;45374;-49
2023/08/25 03:07:40;;;;;;;;;14.00;13.00;;;;;24.00;76.51;100419.09;5057481;28;45468;-47
2023/08/25 03:10:07;;;;;;;;;17.25;13.75;;;;;24.03;76.69;100424.03;5056995;28;46147;-52
2023/08/25 03:12:33;;;;;;;;;12.40;12.40;;;;;24.01;76.73;100423.44;5055692;28;45436;-45
2023/08/25 03:14:58;;;;;;;;;19.25;14.75;;;;;24.12;76.51;100444.31;5057215;28;45493;-46
2023/08/25 03:17:25;;;;;;;;;18.50;16.00;;;;;24.17;75.88;100446.31;5057308;28;45311;-45
2023/08/25 03:19:50;;;;;;;;;17.60;17.60;;;;;24.18;75.50;100446.03;5056996;28;46415;-43
2023/08/25 03:22:16;;;;;;;;;15.25;15.00;;;;;24.22;76.01;100447.22;5056937;28;45263;-49
2023/08/25 03:24:41;;;;;;;;;21.75;18.00;;;;;24.23;76.02;100450.75;5055755;28;45519;-49
2023/08/25 03:27:07;;;;;;;;;21.25;21.25;;;;;24.29;75.34;100471.53;5056120;28;45551;-48
2023/08/25 03:29:32;;;;;;;;;22.00;19.75;;;;;24.30;75.81;100487.59;5056469;28;45775;-43
2023/08/25 03:31:58;;;;;;;;;21.75;19.75;;;;;24.36;75.57;100496.69;5057167;28;45389;-46
2023/08/25 03:34:24;;;;;;;;;27.40;22.40;;;;;24.36;75.67;100513.81;5056699;28;45372;-47
2023/08/25 03:36:49;;;;;;;;;12.00;10.25;;;;;24.32;75.42;100522.72;5056783;28;45393;-47
2023/08/25 03:39:15;;;;;;;;;15.75;14.25;;;;;24.22;75.07;100527.94;5056829;28;46133;-50
2023/08/25 03:41:40;;;;;;;;;15.75;15.25;;;;;24.21;75.31;100529.00;5056474;28;45503;-49
2023/08/25 03:44:06;;;;;;;;;16.25;14.25;;;;;24.14;76.01;100485.66;5056775;28;45422;-52
2023/08/25 03:46:32;;;;;;;;;10.50;10.00;;;;;24.11;75.43;100473.38;5056613;28;45443;-49
2023/08/25 03:48:58;;;;;;;;;14.60;11.80;;;;;24.01;75.77;100484.03;5056558;28;46916;-45
2023/08/25 03:51:24;;;;;;;;;15.75;14.50;;;;;23.93;76.75;100487.13;5056431;28;45394;-48
2023/08/25 03:53:49;;;;;;;;;12.75;12.25;;;;;23.88;76.87;100487.03;5056419;28;45498;-45
2023/08/25 03:56:14;;;;;;;;;15.75;14.75;;;;;23.90;76.67;100485.75;5056808;28;45435;-47
2023/08/25 03:58:40;;;;;;;;;13.00;11.50;;;;;23.92;76.56;100479.25;5055973;28;46026;-48
2023/08/25 04:01:05;;;;;;;;;14.75;12.50;;;;;23.86;76.55;100459.31;5056372;28;45251;-46
2023/08/25 04:03:30;;;;;;;;;13.75;13.75;;;;;23.93;76.33;100468.13;5056452;28;45699;-46
2023/08/25 04:05:56;;;;;;;;;18.00;13.75;;;;;23.93;76.29;100451.81;5056778;28;45973;-45
2023/08/25 04:08:21;;;;;;;;;8.75;8.00;;;;;23.91;75.85;100451.25;5056339;28;45323;-45
2023/08/25 04:10:47;;;;;;;;;15.00;12.00;;;;;23.75;77.14;100433.00;5056110;28;45242;-46
2023/08/25 04:13:13;;;;;;;;;11.75;11.25;;;;;23.71;76.92;100426.41;5056359;28;45429;-46
2023/08/25 04:15:38;;;;;;;;;11.75;11.00;;;;;23.71;77.09;100423.69;5056292;28;45405;-46
2023/08/25 04:18:04;;;;;;;;;16.25;13.25;;;;;23.68;77.31;100422.25;5056218;28;46426;-48
2023/08/25 04:20:30;;;;;;;;;12.80;12.80;;;;;23.65;77.08;100415.44;5055936;28;45359;-47
2023/08/25 04:22:55;;;;;;;;;15.00;12.25;;;;;23.68;77.18;100408.69;5056452;28;45309;-46
2023/08/25 04:25:21;;;;;;;;;13.75;12.25;;;;;23.67;77.28;100403.50;5056328;28;45285;-46
2023/08/25 04:27:46;;;;;;;;;15.00;12.50;;;;;23.68;77.70;100407.84;5055984;28;45346;-49
2023/08/25 04:30:12;;;;;;;;;12.00;12.00;;;;;23.71;77.44;100419.06;5055648;28;45601;-48
2023/08/25 04:32:37;;;;;;;;;11.25;11.25;;;;;23.73;77.20;100416.13;5055832;28;45440;-47
2023/08/25 04:35:03;;;;;;;;;13.00;12.00;;;;;23.73;77.28;100402.56;5055845;28;45707;-44
2023/08/25 04:37:29;;;;;;;;;13.50;11.00;;;;;23.72;77.28;100400.88;5055810;28;46183;-44
2023/08/25 04:39:55;;;;;;;;;10.00;10.00;;;;;23.69;77.59;100394.06;5055870;28;45351;-46
2023/08/25 04:42:23;;;;;;;;;12.20;10.80;;;;;23.71;77.38;100397.34;5055927;28;45440;-46
2023/08/25 04:44:49;;;;;;;;;12.20;10.80;;;;;23.71;77.53;100393.81;5056123;28;45536;-45
2023/08/25 04:47:16;;;;;;;;;17.25;14.00;;;;;23.65;77.61;100387.47;5055654;28;45356;-45
2023/08/25 04:49:43;;;;;;;;;14.80;11.80;;;;;23.68;77.18;100391.56;5055611;28;45438;-48
2023/08/25 04:52:08;;;;;;;;;16.00;13.40;;;;;23.72;77.25;100393.56;5056047;28;45338;-46
2023/08/25 04:54:33;;;;;;;;;23.75;19.50;;;;;23.71;77.17;100396.53;5055705;28;45367;-52
2023/08/25 04:56:59;;;;;;;;;23.50;18.25;;;;;23.74;77.26;100388.72;5055890;28;45742;-50
2023/08/25 04:59:24;;;;;;;;;22.50;21.75;;;;;23.71;77.09;100382.94;5055289;28;45396;-49
2023/08/25 05:01:50;;;;;;;;;29.25;22.75;;;;;23.78;77.23;100398.03;5055541;28;45338;-50
2023/08/25 05:04:15;;;;;;;;;25.75;24.75;;;;;23.80;77.41;100397.78;5055875;28;45280;-45
2023/08/25 05:06:40;;;;;;;;;27.25;24.50;;;;;23.79;77.54;100391.53;5055123;28;50329;-46
2023/08/25 05:09:06;;;;;;;;;24.00;17.25;;;;;23.84;77.18;100397.06;5055478;28;45264;-47
2023/08/25 05:11:33;;;;;;;;;28.75;25.25;;;;;23.82;77.20;100387.50;5058924;28;45413;-46
2023/08/25 05:13:59;;;;;;;;;34.00;30.00;;;;;23.91;77.88;100391.47;5059337;28;45558;-47
2023/08/25 05:16:24;;;;;;;;;31.00;29.25;;;;;23.91;77.63;100383.34;5058609;28;46670;-48
2023/08/25 05:18:50;;;;;;;;;33.75;30.00;;;;;23.94;77.53;100393.72;5058976;28;45380;-49
2023/08/25 05:21:15;;;;;;;;;38.00;31.75;;;;;23.95;77.83;100399.97;5059069;28;45904;-45
2023/08/25 05:23:46;;;;;;;;;34.25;31.25;;;;;23.96;77.61;100399.72;5059050;28;45476;-50
2023/08/25 05:26:13;;;;;;;;;38.25;31.25;;;;;23.96;77.24;100402.44;5058783;28;45163;-46
2023/08/25 05:28:38;;;;;;;;;38.00;31.75;;;;;23.99;77.41;100403.84;5058807;28;45324;-49
2023/08/25 05:31:03;;;;;;;;;37.50;31.25;;;;;24.03;77.28;100405.03;5058693;28;45309;-47
2023/08/25 05:33:29;;;;;;;;;39.00;31.50;;;;;24.06;77.04;100420.81;5059134;28;45474;-50
2023/08/25 05:35:54;;;;;;;;;40.25;34.25;;;;;24.10;76.69;100421.97;5058414;28;47989;-48
2023/08/25 05:38:19;;;;;;;;;37.75;31.75;;;;;24.10;76.92;100424.69;5058635;28;45337;-49
2023/08/25 05:40:45;;;;;;;;;44.50;37.25;;;;;24.07;77.17;100428.75;5058656;28;45387;-48
2023/08/25 05:43:10;;;;;;;;;37.25;32.00;;;;;24.15;76.62;100441.13;5058883;28;45538;-48
2023/08/25 05:45:35;;;;;;;;;41.25;35.25;;;;;24.22;76.31;100454.53;5058214;28;46213;-47
2023/08/25 05:48:01;;;;;;;;;42.50;36.00;;;;;24.24;76.30;100446.97;5058637;28;45425;-49
2023/08/25 05:50:26;;;;;;;;;43.00;32.50;;;;;24.24;76.30;100444.25;5057050;28;45479;-45
2023/08/25 05:52:53;;;;;;;;;46.00;37.50;;;;;24.27;75.96;100446.47;5058939;28;45375;-47
2023/08/25 05:55:19;;;;;;;;;45.00;36.25;;;;;24.33;76.18;100449.06;5058182;28;46266;-48
2023/08/25 05:57:44;;;;;;;;;48.25;35.00;;;;;24.41;75.65;100450.59;5058457;28;45441;-46
2023/08/25 06:00:10;;;;;;;;;39.25;34.00;;;;;24.49;75.39;100450.19;5058574;28;45305;-55
2023/08/25 06:02:36;;;;;;;;;38.25;34.50;;;;;24.51;75.38;100456.19;5058710;28;45328;-47
2023/08/25 06:05:01;;;;;;;;;50.50;40.75;;;;;24.51;75.69;100448.03;5058194;28;46288;-50
2023/08/25 06:07:26;;;;;;;;;47.25;37.75;;;;;24.53;75.11;100439.66;5058348;28;45273;-45
2023/08/25 06:09:51;;;;;;;;;51.00;38.75;;;;;24.47;74.79;100422.41;5058146;28;45323;-47
2023/08/25 06:12:17;;;;;;;;;42.00;35.50;;;;;24.54;75.14;100420.34;5058453;28;45319;-45
2023/08/25 06:14:42;;;;;;;;;47.00;38.50;;;;;24.57;74.72;100421.75;5057731;28;46004;-47
2023/08/25 06:17:08;;;;;;;;;45.50;37.25;;;;;24.57;74.12;100424.47;5058292;28;45248;-47
2023/08/25 06:19:35;;;;;;;;;45.50;37.25;;;;;24.58;74.52;100429.66;5058174;28;45225;-47
2023/08/25 06:22:00;;;;;;;;;47.25;36.00;;;;;24.53;73.68;100407.84;5058229;28;45585;-51
2023/08/25 06:24:26;;;;;;;;;45.25;36.25;;;;;24.62;73.59;100419.13;5057856;28;46113;-49
2023/08/25 06:26:52;;;;;;;;;47.25;37.00;;;;;24.70;73.71;100428.78;5058063;28;45323;-44
2023/08/25 06:29:17;;;;;;;;;46.75;36.50;;;;;24.73;73.13;100430.97;5058068;28;45402;-48
2023/08/25 06:31:43;;;;;;;;;44.50;35.00;;;;;24.75;72.71;100448.72;5058046;28;45430;-48
2023/08/25 06:34:08;;;;;;;;;43.00;35.25;;;;;24.73;72.39;100450.84;5057809;28;46600;-51
2023/08/25 06:36:34;;;;;;;;;68.67;50.00;;;;;24.69;72.59;100452.41;5057666;28;45447;-49
2023/08/25 06:39:00;;;;;;;;;47.25;35.25;;;;;24.68;72.79;100461.63;5058268;28;45779;-48
2023/08/25 06:41:25;;;;;;;;;52.00;40.75;;;;;24.64;72.59;100455.03;5058108;28;45448;-46
2023/08/25 06:43:51;;;;;;;;;42.25;36.00;;;;;24.58;72.08;100454.13;5057716;28;45382;-48
2023/08/25 06:46:16;;;;;;;;;47.25;36.75;;;;;24.60;72.15;100459.31;5057526;28;45324;-47
2023/08/25 06:48:41;;;;;;;;;43.00;32.50;;;;;24.57;72.28;100459.84;5057902;28;45304;-49
2023/08/25 06:51:07;;;;;;;;;46.75;38.00;;;;;24.54;72.95;100455.69;5057750;28;45552;-47
2023/08/25 06:53:32;;;;;;;;;46.00;36.25;;;;;24.55;72.75;100445.66;5057651;28;46319;-48
2023/08/25 06:55:57;;;;;;;;;48.75;34.50;;;;;24.53;72.44;100448.63;5057628;28;45343;-47
2023/08/25 06:58:23;;;;;;;;;42.25;35.25;;;;;24.53;72.92;100453.25;5057475;28;45308;-50
2023/08/25 07:00:50;;;;;;;;;46.25;36.50;;;;;24.49;72.65;100430.31;5057740;28;45370;-45
2023/08/25 07:03:16;;;;;;;;;39.00;33.75;;;;;24.52;72.50;100444.22;5057289;28;45441;-47
2023/08/25 07:05:41;;;;;;;;;40.50;32.50;;;;;24.53;72.51;100442.34;5056263;28;45330;-44
2023/08/25 07:08:07;;;;;;;;;41.00;32.00;;;;;24.61;71.98;100445.50;5057598;28;45288;-49
2023/08/25 07:10:32;;;;;;;;;38.75;32.75;;;;;24.70;71.71;100445.91;5057524;28;45461;-47
2023/08/25 07:12:57;;;;;;;;;34.25;31.25;;;;;24.82;71.27;100448.56;5057511;28;46403;-44
2023/08/25 07:15:23;;;;;;;;;34.50;29.25;;;;;24.85;70.97;100445.31;5057063;28;45520;-51
2023/08/25 07:17:48;;;;;;;;;30.75;27.75;;;;;24.78;71.54;100453.66;5057738;28;45386;-46
2023/08/25 07:20:14;;;;;;;;;27.00;24.25;;;;;24.70;71.58;100443.19;5057589;28;45371;-51
2023/08/25 07:22:40;;;;;;;;;28.50;27.75;;;;;24.75;71.44;100453.31;5057271;28;46378;-51
2023/08/25 07:25:06;;;;;;;;;32.20;28.20;;;;;24.73;71.57;100455.44;5057089;28;45408;-48
2023/08/25 07:27:32;;;;;;;;;30.20;25.60;;;;;24.74;71.31;100459.84;5057102;28;45428;-49
2023/08/25 07:29:58;;;;;;;;;33.25;28.50;;;;;24.73;71.31;100459.00;5057701;28;45473;-49
2023/08/25 07:32:24;;;;;;;;;32.60;27.40;;;;;24.74;71.35;100454.41;5056088;28;46224;-51
2023/08/25 07:34:50;;;;;;;;;30.75;28.75;;;;;24.79;70.83;100463.47;5056978;28;45359;-45
2023/08/25 07:37:15;;;;;;;;;31.50;27.25;;;;;24.79;70.36;100458.03;5056884;28;45439;-49
2023/08/25 07:39:41;;;;;;;;;29.00;24.50;;;;;24.83;70.38;100464.63;5057176;28;45360;-50
2023/08/25 07:42:08;;;;;;;;;26.80;25.20;;;;;24.80;70.84;100461.56;5056699;28;47471;-48
2023/08/25 07:44:33;;;;;;;;;25.00;23.20;;;;;24.75;70.48;100456.88;5056488;28;45407;-47
2023/08/25 07:46:58;;;;;;;;;25.00;22.75;;;;;24.77;70.24;100464.78;5056919;28;45314;-45
2023/08/25 07:49:24;;;;;;;;;24.00;22.50;;;;;24.80;69.94;100469.72;5056923;28;45414;-47
2023/08/25 07:51:49;;;;;;;;;20.25;19.25;;;;;24.87;69.54;100470.38;5055185;28;47421;-44
2023/08/25 07:54:15;;;;;;;;;23.50;20.00;;;;;24.91;69.37;100481.59;5056405;28;45482;-46
2023/08/25 07:56:40;;;;;;;;;17.75;17.75;;;;;24.83;69.28;100480.94;5056573;28;45441;-51
2023/08/25 07:59:06;;;;;;;;;18.75;16.75;;;;;24.83;69.11;100497.25;5056836;28;45309;-47
2023/08/25 08:01:32;;;;;;;;;18.20;17.00;;;;;24.79;68.81;100507.00;5056606;28;45508;-47
2023/08/25 08:03:57;;;;;;;;;20.00;15.00;;;;;24.77;68.92;100505.56;5056590;28;45331;-45
2023/08/25 08:06:22;;;;;;;;;15.50;15.25;;;;;24.72;69.45;100495.44;5056509;28;45778;-47
2023/08/25 08:08:48;;;;;;;;;14.75;12.75;;;;;24.71;68.77;100501.13;5056817;28;45245;-48
2023/08/25 08:11:14;;;;;;;;;16.50;15.25;;;;;24.62;68.98;100495.28;5056149;28;45451;-50
2023/08/25 08:13:39;;;;;;;;;17.80;15.00;;;;;24.62;68.94;100501.53;5056354;28;45386;-48
2023/08/25 08:16:05;;;;;;;;;18.75;14.75;;;;;24.60;69.47;100503.66;5056210;28;45884;-45
2023/08/25 08:18:30;;;;;;;;;18.50;17.25;;;;;24.58;69.28;100511.25;5056693;28;45363;-46
2023/08/25 08:20:56;;;;;;;;;16.75;16.25;;;;;24.56;68.98;100516.09;5056101;28;46652;-51
2023/08/25 08:23:23;;;;;;;;;16.75;16.75;;;;;24.51;68.99;100509.75;5056193;28;45324;-47
2023/08/25 08:25:48;;;;;;;;;18.20;16.00;;;;;24.53;69.78;100523.94;5055632;28;45287;-47
2023/08/25 08:28:13;;;;;;;;;18.25;16.50;;;;;24.52;69.21;100533.16;5056182;28;45370;-48
2023/08/25 08:30:40;;;;;;;;;15.50;13.00;;;;;24.51;69.30;100526.88;5055927;28;45487;-43
2023/08/25 08:33:06;;;;;;;;;17.00;14.80;;;;;24.50;69.65;100541.56;5055271;28;45350;-49
2023/08/25 08:35:31;;;;;;;;;18.20;13.80;;;;;24.43;69.72;100526.44;5055772;28;45400;-46
2023/08/25 08:37:57;;;;;;;;;16.25;15.75;;;;;24.46;69.80;100543.13;5056048;28;45220;-48
2023/08/25 08:40:22;;;;;;;;;14.75;13.75;;;;;24.42;70.19;100538.41;5055420;28;46560;-52
2023/08/25 08:42:49;;;;;;;;;16.00;16.00;;;;;24.44;69.86;100553.41;5055847;28;45352;-50
2023/08/25 08:45:17;;;;;;;;;12.20;11.60;;;;;24.42;69.89;100558.25;5055721;28;45224;-47
2023/08/25 08:47:44;;;;;;;;;13.40;10.60;;;;;24.38;69.56;100554.38;5055703;28;45477;-48
2023/08/25 08:50:10;;;;;;;;;12.20;9.80;;;;;24.39;70.28;100567.72;5055342;28;47582;-47
2023/08/25 08:52:35;;;;;;;;;15.50;12.75;;;;;24.39;69.89;100566.91;5055406;28;45439;-48
2023/08/25 08:55:04;;;;;;;;;13.25;9.25;;;;;24.36;69.74;100567.38;5055973;28;45243;-47
2023/08/25 08:57:29;;;;;;;;;11.40;10.20;;;;;24.32;70.17;100572.47;5056054;28;45351;-50
2023/08/25 09:00:09;;;;;;;;;7.00;6.00;;;;;24.28;69.70;100575.91;5055415;28;45975;-46
2023/08/25 09:02:35;;;;;;;;;4.00;4.00;;;;;24.22;69.62;100568.69;5055259;28;45390;-47
2023/08/25 09:05:02;;;;;;;;;4.00;3.60;;;;;24.13;70.12;100570.97;5055640;28;45462;-49
2023/08/25 09:07:31;;;;;;;;;3.00;3.00;;;;;24.18;70.01;100579.22;5056015;28;45352;-48
2023/08/25 09:09:57;;;;;;;;;3.60;2.40;;;;;24.14;69.42;100584.34;5055298;28;46236;-48
2023/08/25 09:12:23;;;;;;;;;4.00;4.00;;;;;24.10;69.90;100591.31;5055433;28;45782;-46
2023/08/25 09:14:49;;;;;;;;;3.00;3.00;;;;;24.07;69.57;100591.78;5053879;28;45372;-47
2023/08/25 09:17:15;;;;;;;;;4.25;3.00;;;;;24.06;69.96;100600.16;5055462;28;45403;-47
2023/08/25 09:19:41;;;;;;;;;4.00;3.40;;;;;24.02;69.34;100605.28;5055044;28;46160;-48
2023/08/25 09:22:11;;;;;;;;;3.60;2.80;;;;;23.99;69.71;100611.19;5055206;28;45300;-47
2023/08/25 09:24:37;;;;;;;;;2.20;2.20;;;;;23.93;69.12;100608.56;5055396;28;45414;-48
2023/08/25 09:27:03;;;;;;;;;3.00;3.00;;;;;23.92;69.25;100621.34;5055426;28;45697;-49
2023/08/25 09:29:40;;;;;;;;;1.75;1.00;;;;;23.89;68.71;100624.53;5055542;28;45458;-47
2023/08/25 09:32:06;;;;;;;;;1.80;1.80;;;;;23.87;68.79;100626.66;5055192;28;45380;-50
2023/08/25 09:34:32;;;;;;;;;3.25;3.00;;;;;23.87;67.81;100626.66;5055300;28;45525;-50
2023/08/25 09:36:57;;;;;;;;;2.00;1.75;;;;;23.88;67.49;100618.25;5055521;28;45299;-47
2023/08/25 09:39:24;;;;;;;;;4.00;2.50;;;;;23.94;67.26;100619.22;5054931;28;45951;-48
2023/08/25 09:41:49;;;;;;;;;3.00;3.00;;;;;24.02;67.13;100628.88;5053891;28;45297;-47
2023/08/25 09:44:16;;;;;;;;;4.00;2.50;;;;;24.04;66.45;100622.16;5055282;28;45485;-47
2023/08/25 09:46:43;;;;;;;;;0.60;0.60;;;;;24.02;66.79;100627.00;5055228;28;45865;-48
2023/08/25 09:49:10;;;;;;;;;3.20;3.20;;;;;23.97;66.40;100626.06;5053607;28;48395;-52
2023/08/25 09:51:41;;;;;;;;;2.40;2.00;;;;;23.96;66.45;100633.38;5054772;28;45311;-45
2023/08/25 09:54:12;;;;;;;;;1.40;1.40;;;;;23.96;66.16;100632.56;5055132;28;45513;-50
2023/08/25 09:56:45;;;;;;;;;5.40;3.80;;;;;23.89;65.80;100622.66;5057489;28;45252;-50
2023/08/25 09:59:13;;;;;;;;;3.80;1.80;;;;;23.97;66.53;100639.63;5058288;28;45976;-45
2023/08/25 10:01:41;;;;;;;;;2.00;2.00;;;;;23.89;65.89;100644.38;5058270;28;45239;-47
2023/08/25 10:04:07;;;;;;;;;2.80;1.60;;;;;23.81;66.24;100644.75;5058341;28;45304;-46
2023/08/25 10:06:35;;;;;;;;;3.75;3.75;;;;;23.80;66.41;100644.97;5058461;28;45351;-44
2023/08/25 10:09:01;;;;;;;;;3.00;3.00;;;;;23.79;66.08;100638.69;5058200;28;45438;-47
2023/08/25 10:11:29;;;;;;;;;3.20;3.20;;;;;23.87;66.06;100619.34;5058072;28;45339;-47
2023/08/25 10:13:58;;;;;;;;;5.80;3.60;;;;;23.92;65.97;100621.34;5058199;28;45455;-47
2023/08/25 10:16:28;;;;;;;;;2.40;2.40;;;;;24.08;64.96;100625.22;5058246;28;45425;-51
2023/08/25 10:19:01;;;;;;;;;2.20;2.20;;;;;24.19;64.15;100621.66;5058011;28;45404;-49
2023/08/25 10:21:30;;;;;;;;;1.80;1.80;;;;;24.33;63.95;100612.16;5057861;28;45808;-52
2023/08/25 10:24:00;;;;;;;;;4.60;3.40;;;;;24.48;64.01;100619.00;5058171;28;45763;-49
2023/08/25 10:26:26;;;;;;;;;1.80;1.80;;;;;24.45;63.88;100619.50;5056774;28;45551;-50
2023/08/25 10:28:52;;;;;;;;;5.20;4.00;;;;;24.43;63.29;100633.31;5057792;28;46749;-47
2023/08/25 10:31:19;;;;;;;;;3.60;3.60;;;;;24.42;62.90;100631.66;5057499;28;45429;-50
2023/08/25 10:33:52;;;;;;;;;6.20;3.00;;;;;24.39;62.96;100635.69;5056301;28;45372;-46
2023/08/25 10:36:19;;;;;;;;;2.00;2.00;;;;;24.38;63.40;100644.91;5057979;28;45351;-52
2023/08/25 10:38:54;;;;;;;;;2.60;2.60;;;;;24.32;63.23;100639.59;5057828;28;45343;-52
2023/08/25 10:41:20;;;;;;;;;3.80;3.40;;;;;24.27;62.56;100645.75;5057705;28;45191;-49
2023/08/25 10:43:57;;;;;;;;;3.20;3.00;;;;;24.27;62.57;100645.75;5057611;28;45379;-52
2023/08/25 10:46:23;;;;;;;;;4.60;2.80;;;;;24.27;62.68;100636.75;5057532;28;45311;-51
2023/08/25 10:49:03;;;;;;;;;3.20;3.20;;;;;24.27;62.68;100644.91;5057487;28;46330;-46
2023/08/25 10:51:28;;;;;;;;;4.40;3.80;;;;;24.19;62.31;100646.13;5057735;28;45304;-49
2023/08/25 10:53:54;;;;;;;;;2.75;2.75;;;;;24.10;62.43;100639.38;5057679;28;45217;-46
2023/08/25 10:56:23;;;;;;;;;4.00;3.25;;;;;24.13;62.99;100644.34;5057780;28;45428;-50
2023/08/25 10:59:12;;;;;;;;;7.80;6.20;;;;;24.10;63.54;100647.53;5057336;28;45505;-51
2023/08/25 11:01:37;;;;;;;;;7.00;5.00;;;;;24.07;62.58;100651.56;5057434;28;45705;-50
2023/08/25 11:04:05;;;;;;;;;5.50;4.25;;;;;24.02;62.80;100659.63;5057526;28;45359;-47
2023/08/25 11:06:38;;;;;;;;;8.00;5.60;;;;;23.98;62.80;100665.78;5057231;28;45529;-45
2023/08/25 11:09:03;;;;;;;;;6.00;6.00;;;;;23.95;62.82;100649.94;5056326;28;46109;-46